CYBB/YBB METAR and TAF weather

Enter ICAO airport designator
Station Type Date Time Source
CYBB METAR 2024/04/15 23:00 UTC NOAA

CYBB 152300Z 24012KT 8SM -SHSN BKN027 M05/M07 A3009 RMK ST6 S00 AFT 14Z/LAST STFD OBS/NXT 161200Z SLP193


Station Type Date Time Source
CYBB Decoded METAR 2024/04/15 23:00 UTC NOAA

Pelly Bay Airport, Canada (CYBB) 68-32N 089-49W
Apr 15, 2024 - 07:00 PM EDT / 2024.04.15 2300 UTC
Wind: from the WSW (240 degrees) at 14 MPH (12 KT):0
Visibility: 8 mile(s):0
Sky conditions: mostly cloudy
Weather: light snow showers
Temperature: 23 F (-5 C)
Windchill: 10 F (-12 C):1
Dew Point: 19 F (-7 C)
Relative Humidity: 85%
Pressure (altimeter): 30.09 in. Hg (1018 hPa)
ob: CYBB 152300Z 24012KT 8SM -SHSN BKN027 M05/M07 A3009 RMK ST6 S00 AFT 14Z/LAST STFD OBS/NXT 161200Z SLP193
cycle: 23

Station Type Date Time Source
CYBB TAF 2024/04/15 22:21 UTC NOAA